sensor_id;sensor_type;location;lat;lon;timestamp;temperature;humidity
14487;DHT22;7329;50.866;4.366;2022-12-29T00:00:10;18.60;99.90
14487;DHT22;7329;50.866;4.366;2022-12-29T00:02:15;18.60;99.90
14487;DHT22;7329;50.866;4.366;2022-12-29T00:04:17;18.60;99.90
14487;DHT22;7329;50.866;4.366;2022-12-29T00:06:20;18.60;99.90
14487;DHT22;7329;50.866;4.366;2022-12-29T00:08:22;18.60;99.90
14487;DHT22;7329;50.866;4.366;2022-12-29T00:10:40;18.60;99.90
14487;DHT22;7329;50.866;4.366;2022-12-29T00:12:42;18.60;99.90
14487;DHT22;7329;50.866;4.366;2022-12-29T00:15:02;18.60;99.90
14487;DHT22;7329;50.866;4.366;2022-12-29T00:17:24;18.60;99.90
14487;DHT22;7329;50.866;4.366;2022-12-29T00:19:26;18.60;99.90
14487;DHT22;7329;50.866;4.366;2022-12-29T00:21:46;18.60;99.90
14487;DHT22;7329;50.866;4.366;2022-12-29T00:24:08;18.60;99.90
14487;DHT22;7329;50.866;4.366;2022-12-29T00:26:29;18.60;99.90
14487;DHT22;7329;50.866;4.366;2022-12-29T00:28:50;18.60;99.90
14487;DHT22;7329;50.866;4.366;2022-12-29T00:31:12;18.60;99.90
14487;DHT22;7329;50.866;4.366;2022-12-29T00:33:33;18.50;99.90
14487;DHT22;7329;50.866;4.366;2022-12-29T00:35:55;18.60;99.90
14487;DHT22;7329;50.866;4.366;2022-12-29T00:38:02;18.50;99.90
14487;DHT22;7329;50.866;4.366;2022-12-29T00:40:23;18.50;99.90
14487;DHT22;7329;50.866;4.366;2022-12-29T00:42:42;18.50;99.90
14487;DHT22;7329;50.866;4.366;2022-12-29T00:45:02;18.50;99.90
14487;DHT22;7329;50.866;4.366;2022-12-29T00:47:04;18.60;99.90
14487;DHT22;7329;50.866;4.366;2022-12-29T00:49:10;18.50;99.90
14487;DHT22;7329;50.866;4.366;2022-12-29T00:51:30;18.50;99.90
14487;DHT22;7329;50.866;4.366;2022-12-29T00:53:32;18.50;99.90
14487;DHT22;7329;50.866;4.366;2022-12-29T00:55:36;18.50;99.90
14487;DHT22;7329;50.866;4.366;2022-12-29T00:57:39;18.50;99.90
14487;DHT22;7329;50.866;4.366;2022-12-29T00:59:42;18.50;99.90
14487;DHT22;7329;50.866;4.366;2022-12-29T01:01:45;18.50;99.90
14487;DHT22;7329;50.866;4.366;2022-12-29T01:03:48;18.50;99.90
14487;DHT22;7329;50.866;4.366;2022-12-29T01:05:51;18.50;99.90
14487;DHT22;7329;50.866;4.366;2022-12-29T01:07:54;18.50;99.90
14487;DHT22;7329;50.866;4.366;2022-12-29T01:09:56;18.50;99.90
14487;DHT22;7329;50.866;4.366;2022-12-29T01:12:13;18.50;99.90
14487;DHT22;7329;50.866;4.366;2022-12-29T01:14:16;18.50;99.90
14487;DHT22;7329;50.866;4.366;2022-12-29T01:16:18;18.50;99.90
14487;DHT22;7329;50.866;4.366;2022-12-29T01:18:21;18.50;99.90
14487;DHT22;7329;50.866;4.366;2022-12-29T01:20:24;18.60;99.90
14487;DHT22;7329;50.866;4.366;2022-12-29T01:22:29;18.50;99.90
14487;DHT22;7329;50.866;4.366;2022-12-29T01:24:32;18.50;99.90
14487;DHT22;7329;50.866;4.366;2022-12-29T01:26:34;18.50;99.90
14487;DHT22;7329;50.866;4.366;2022-12-29T01:28:37;18.50;99.90
14487;DHT22;7329;50.866;4.366;2022-12-29T01:30:40;18.50;99.90
14487;DHT22;7329;50.866;4.366;2022-12-29T01:32:43;18.50;99.90
14487;DHT22;7329;50.866;4.366;2022-12-29T01:34:45;18.50;99.90
14487;DHT22;7329;50.866;4.366;2022-12-29T01:36:47;18.50;99.90
14487;DHT22;7329;50.866;4.366;2022-12-29T01:38:51;18.50;99.90
14487;DHT22;7329;50.866;4.366;2022-12-29T01:40:54;18.50;99.90
14487;DHT22;7329;50.866;4.366;2022-12-29T01:42:56;18.50;99.90
14487;DHT22;7329;50.866;4.366;2022-12-29T01:45:00;18.50;99.90
14487;DHT22;7329;50.866;4.366;2022-12-29T01:47:03;18.40;99.90
14487;DHT22;7329;50.866;4.366;2022-12-29T01:49:11;18.40;99.90
14487;DHT22;7329;50.866;4.366;2022-12-29T01:51:14;18.50;99.90
14487;DHT22;7329;50.866;4.366;2022-12-29T01:53:19;18.40;99.90
14487;DHT22;7329;50.866;4.366;2022-12-29T01:55:24;18.40;99.90
14487;DHT22;7329;50.866;4.366;2022-12-29T01:57:29;18.40;99.90
14487;DHT22;7329;50.866;4.366;2022-12-29T01:59:37;18.40;99.90
14487;DHT22;7329;50.866;4.366;2022-12-29T02:01:41;18.40;99.90
14487;DHT22;7329;50.866;4.366;2022-12-29T02:03:43;18.40;99.90
14487;DHT22;7329;50.866;4.366;2022-12-29T02:05:51;18.40;99.90
14487;DHT22;7329;50.866;4.366;2022-12-29T02:07:54;18.40;99.90
14487;DHT22;7329;50.866;4.366;2022-12-29T02:09:58;18.40;99.90
14487;DHT22;7329;50.866;4.366;2022-12-29T02:12:02;18.40;99.90
14487;DHT22;7329;50.866;4.366;2022-12-29T02:14:09;18.40;99.90
14487;DHT22;7329;50.866;4.366;2022-12-29T02:16:30;18.40;99.90
14487;DHT22;7329;50.866;4.366;2022-12-29T02:18:42;18.40;99.90
14487;DHT22;7329;50.866;4.366;2022-12-29T02:21:21;18.40;99.90
14487;DHT22;7329;50.866;4.366;2022-12-29T02:23:50;18.40;99.90
14487;DHT22;7329;50.866;4.366;2022-12-29T02:26:11;18.30;99.90
14487;DHT22;7329;50.866;4.366;2022-12-29T02:28:36;18.40;99.90
14487;DHT22;7329;50.866;4.366;2022-12-29T02:30:59;18.30;99.90
14487;DHT22;7329;50.866;4.366;2022-12-29T02:33:13;18.30;99.90
14487;DHT22;7329;50.866;4.366;2022-12-29T02:35:24;18.30;99.90
14487;DHT22;7329;50.866;4.366;2022-12-29T02:37:33;18.30;99.90
14487;DHT22;7329;50.866;4.366;2022-12-29T02:39:47;18.30;99.90
14487;DHT22;7329;50.866;4.366;2022-12-29T02:41:58;18.30;99.90
14487;DHT22;7329;50.866;4.366;2022-12-29T02:44:07;18.30;99.90
14487;DHT22;7329;50.866;4.366;2022-12-29T02:46:19;18.30;99.90
14487;DHT22;7329;50.866;4.366;2022-12-29T02:48:28;18.30;99.90
14487;DHT22;7329;50.866;4.366;2022-12-29T02:50:34;18.30;99.90
14487;DHT22;7329;50.866;4.366;2022-12-29T02:52:42;18.30;99.90
14487;DHT22;7329;50.866;4.366;2022-12-29T02:54:45;18.30;99.90
14487;DHT22;7329;50.866;4.366;2022-12-29T02:56:49;18.30;99.90
14487;DHT22;7329;50.866;4.366;2022-12-29T02:58:51;18.30;99.90
14487;DHT22;7329;50.866;4.366;2022-12-29T03:01:10;18.30;99.90
14487;DHT22;7329;50.866;4.366;2022-12-29T03:03:24;18.30;99.90
14487;DHT22;7329;50.866;4.366;2022-12-29T03:05:53;18.30;99.90
14487;DHT22;7329;50.866;4.366;2022-12-29T03:08:04;18.20;99.90
14487;DHT22;7329;50.866;4.366;2022-12-29T03:10:15;18.30;99.90
14487;DHT22;7329;50.866;4.366;2022-12-29T03:12:26;18.30;99.90
14487;DHT22;7329;50.866;4.366;2022-12-29T03:14:58;18.20;99.90
14487;DHT22;7329;50.866;4.366;2022-12-29T03:17:25;18.20;99.90
14487;DHT22;7329;50.866;4.366;2022-12-29T03:19:32;18.30;99.90
14487;DHT22;7329;50.866;4.366;2022-12-29T03:21:42;18.20;99.90
14487;DHT22;7329;50.866;4.366;2022-12-29T03:24:03;18.20;99.90
14487;DHT22;7329;50.866;4.366;2022-12-29T03:26:08;18.20;99.90
14487;DHT22;7329;50.866;4.366;2022-12-29T03:28:16;18.10;99.90
14487;DHT22;7329;50.866;4.366;2022-12-29T03:30:20;18.10;99.90
14487;DHT22;7329;50.866;4.366;2022-12-29T03:32:26;18.10;99.90
14487;DHT22;7329;50.866;4.366;2022-12-29T03:34:31;18.20;99.90
14487;DHT22;7329;50.866;4.366;2022-12-29T03:36:40;18.20;99.90
14487;DHT22;7329;50.866;4.366;2022-12-29T03:38:48;18.20;99.90
14487;DHT22;7329;50.866;4.366;2022-12-29T03:40:55;18.20;99.90
14487;DHT22;7329;50.866;4.366;2022-12-29T03:42:58;18.20;99.90
14487;DHT22;7329;50.866;4.366;2022-12-29T03:45:05;18.20;99.90
14487;DHT22;7329;50.866;4.366;2022-12-29T03:47:10;18.20;99.90
14487;DHT22;7329;50.866;4.366;2022-12-29T03:49:13;18.20;99.90
14487;DHT22;7329;50.866;4.366;2022-12-29T03:51:16;18.20;99.90
14487;DHT22;7329;50.866;4.366;2022-12-29T03:53:19;18.10;99.90
14487;DHT22;7329;50.866;4.366;2022-12-29T03:55:21;18.10;99.90
14487;DHT22;7329;50.866;4.366;2022-12-29T03:57:23;18.20;99.90
14487;DHT22;7329;50.866;4.366;2022-12-29T03:59:26;18.20;99.90
14487;DHT22;7329;50.866;4.366;2022-12-29T04:01:28;18.10;99.90
14487;DHT22;7329;50.866;4.366;2022-12-29T04:03:31;18.20;99.90
14487;DHT22;7329;50.866;4.366;2022-12-29T04:05:33;18.10;99.90
14487;DHT22;7329;50.866;4.366;2022-12-29T04:07:37;18.10;99.90
14487;DHT22;7329;50.866;4.366;2022-12-29T04:09:39;18.20;99.90
14487;DHT22;7329;50.866;4.366;2022-12-29T04:11:41;18.10;99.90
14487;DHT22;7329;50.866;4.366;2022-12-29T04:13:44;18.10;99.90
14487;DHT22;7329;50.866;4.366;2022-12-29T04:15:46;18.10;99.90
14487;DHT22;7329;50.866;4.366;2022-12-29T04:17:48;18.10;99.90
14487;DHT22;7329;50.866;4.366;2022-12-29T04:19:51;18.10;99.90
14487;DHT22;7329;50.866;4.366;2022-12-29T04:22:13;18.10;99.90
14487;DHT22;7329;50.866;4.366;2022-12-29T04:24:17;18.10;99.90
14487;DHT22;7329;50.866;4.366;2022-12-29T04:26:20;18.10;99.90
14487;DHT22;7329;50.866;4.366;2022-12-29T04:28:22;18.10;99.90
14487;DHT22;7329;50.866;4.366;2022-12-29T04:30:24;18.10;99.90
14487;DHT22;7329;50.866;4.366;2022-12-29T04:32:27;18.10;99.90
14487;DHT22;7329;50.866;4.366;2022-12-29T04:34:29;18.10;99.90
14487;DHT22;7329;50.866;4.366;2022-12-29T04:36:32;18.10;99.90
14487;DHT22;7329;50.866;4.366;2022-12-29T04:38:34;18.10;99.90
14487;DHT22;7329;50.866;4.366;2022-12-29T04:40:39;18.10;99.90
14487;DHT22;7329;50.866;4.366;2022-12-29T04:42:41;18.10;99.90
14487;DHT22;7329;50.866;4.366;2022-12-29T04:44:44;18.10;99.90
14487;DHT22;7329;50.866;4.366;2022-12-29T04:46:46;18.10;99.90
14487;DHT22;7329;50.866;4.366;2022-12-29T04:48:48;18.10;99.90
14487;DHT22;7329;50.866;4.366;2022-12-29T04:50:51;18.10;99.90
14487;DHT22;7329;50.866;4.366;2022-12-29T04:52:53;18.10;99.90
14487;DHT22;7329;50.866;4.366;2022-12-29T04:54:55;18.10;99.90
14487;DHT22;7329;50.866;4.366;2022-12-29T04:56:59;18.00;99.90
14487;DHT22;7329;50.866;4.366;2022-12-29T04:59:01;18.10;99.90
14487;DHT22;7329;50.866;4.366;2022-12-29T05:01:04;18.00;99.90
14487;DHT22;7329;50.866;4.366;2022-12-29T05:03:06;18.10;99.90
14487;DHT22;7329;50.866;4.366;2022-12-29T05:05:09;18.00;99.90
14487;DHT22;7329;50.866;4.366;2022-12-29T05:07:11;18.10;99.90
14487;DHT22;7329;50.866;4.366;2022-12-29T05:09:14;18.00;99.90
14487;DHT22;7329;50.866;4.366;2022-12-29T05:11:17;18.00;99.90
14487;DHT22;7329;50.866;4.366;2022-12-29T05:13:21;18.10;99.90
14487;DHT22;7329;50.866;4.366;2022-12-29T05:15:23;18.00;99.90
14487;DHT22;7329;50.866;4.366;2022-12-29T05:17:26;18.00;99.90
14487;DHT22;7329;50.866;4.366;2022-12-29T05:19:28;18.00;99.90
14487;DHT22;7329;50.866;4.366;2022-12-29T05:21:30;18.00;99.90
14487;DHT22;7329;50.866;4.366;2022-12-29T05:23:33;18.00;99.90
14487;DHT22;7329;50.866;4.366;2022-12-29T05:25:35;18.00;99.90
14487;DHT22;7329;50.866;4.366;2022-12-29T05:27:37;18.00;99.90
14487;DHT22;7329;50.866;4.366;2022-12-29T05:29:41;18.00;99.90
14487;DHT22;7329;50.866;4.366;2022-12-29T05:31:44;18.00;99.90
14487;DHT22;7329;50.866;4.366;2022-12-29T05:33:46;18.00;99.90
14487;DHT22;7329;50.866;4.366;2022-12-29T05:35:48;17.90;99.90
14487;DHT22;7329;50.866;4.366;2022-12-29T05:37:51;18.00;99.90
14487;DHT22;7329;50.866;4.366;2022-12-29T05:39:53;18.00;99.90
14487;DHT22;7329;50.866;4.366;2022-12-29T05:41:55;18.00;99.90
14487;DHT22;7329;50.866;4.366;2022-12-29T05:43:58;18.00;99.90
14487;DHT22;7329;50.866;4.366;2022-12-29T05:46:01;18.00;99.90
14487;DHT22;7329;50.866;4.366;2022-12-29T05:48:05;18.00;99.90
14487;DHT22;7329;50.866;4.366;2022-12-29T05:50:08;18.00;99.90
14487;DHT22;7329;50.866;4.366;2022-12-29T05:52:10;18.00;99.90
14487;DHT22;7329;50.866;4.366;2022-12-29T05:54:12;18.00;99.90
14487;DHT22;7329;50.866;4.366;2022-12-29T05:56:15;18.00;99.90
14487;DHT22;7329;50.866;4.366;2022-12-29T05:58:18;18.00;99.90
14487;DHT22;7329;50.866;4.366;2022-12-29T06:00:20;18.00;99.90
14487;DHT22;7329;50.866;4.366;2022-12-29T06:02:24;18.00;99.90
14487;DHT22;7329;50.866;4.366;2022-12-29T06:04:26;18.00;99.90
14487;DHT22;7329;50.866;4.366;2022-12-29T06:06:29;18.00;99.90
14487;DHT22;7329;50.866;4.366;2022-12-29T06:08:31;18.00;99.90
14487;DHT22;7329;50.866;4.366;2022-12-29T06:10:33;17.90;99.90
14487;DHT22;7329;50.866;4.366;2022-12-29T06:12:36;18.00;99.90
14487;DHT22;7329;50.866;4.366;2022-12-29T06:14:38;17.90;99.90
14487;DHT22;7329;50.866;4.366;2022-12-29T06:16:40;18.00;99.90
14487;DHT22;7329;50.866;4.366;2022-12-29T06:18:45;18.00;99.90
14487;DHT22;7329;50.866;4.366;2022-12-29T06:20:47;18.10;99.90
14487;DHT22;7329;50.866;4.366;2022-12-29T06:22:50;18.10;99.90
14487;DHT22;7329;50.866;4.366;2022-12-29T06:24:52;18.10;99.90
14487;DHT22;7329;50.866;4.366;2022-12-29T06:26:54;18.10;99.90
14487;DHT22;7329;50.866;4.366;2022-12-29T06:28:57;18.10;99.90
14487;DHT22;7329;50.866;4.366;2022-12-29T06:30:59;18.20;99.90
14487;DHT22;7329;50.866;4.366;2022-12-29T06:33:03;18.20;99.90
14487;DHT22;7329;50.866;4.366;2022-12-29T06:35:08;18.10;99.90
14487;DHT22;7329;50.866;4.366;2022-12-29T06:37:11;18.10;99.90
14487;DHT22;7329;50.866;4.366;2022-12-29T06:39:14;18.10;99.90
14487;DHT22;7329;50.866;4.366;2022-12-29T06:41:16;18.10;99.90
14487;DHT22;7329;50.866;4.366;2022-12-29T06:43:18;18.10;99.90
14487;DHT22;7329;50.866;4.366;2022-12-29T06:45:21;18.20;99.90
14487;DHT22;7329;50.866;4.366;2022-12-29T06:47:23;18.20;99.90
14487;DHT22;7329;50.866;4.366;2022-12-29T06:49:26;18.20;99.90
14487;DHT22;7329;50.866;4.366;2022-12-29T06:51:29;18.30;99.90
14487;DHT22;7329;50.866;4.366;2022-12-29T06:53:32;18.20;99.90
14487;DHT22;7329;50.866;4.366;2022-12-29T06:55:34;18.20;99.90
14487;DHT22;7329;50.866;4.366;2022-12-29T06:57:36;18.30;99.90
14487;DHT22;7329;50.866;4.366;2022-12-29T06:59:39;18.30;99.90
14487;DHT22;7329;50.866;4.366;2022-12-29T07:01:41;18.30;99.90
14487;DHT22;7329;50.866;4.366;2022-12-29T07:03:43;18.30;99.90
14487;DHT22;7329;50.866;4.366;2022-12-29T07:05:46;18.30;99.90
14487;DHT22;7329;50.866;4.366;2022-12-29T07:07:49;18.30;99.90
14487;DHT22;7329;50.866;4.366;2022-12-29T07:09:52;18.30;99.90
14487;DHT22;7329;50.866;4.366;2022-12-29T07:11:54;18.30;99.90
14487;DHT22;7329;50.866;4.366;2022-12-29T07:13:56;18.30;99.90
14487;DHT22;7329;50.866;4.366;2022-12-29T07:15:59;18.30;99.90
14487;DHT22;7329;50.866;4.366;2022-12-29T07:18:01;18.30;99.90
14487;DHT22;7329;50.866;4.366;2022-12-29T07:20:05;18.30;99.90
14487;DHT22;7329;50.866;4.366;2022-12-29T07:22:09;18.30;99.90
14487;DHT22;7329;50.866;4.366;2022-12-29T07:24:13;18.30;99.90
14487;DHT22;7329;50.866;4.366;2022-12-29T07:26:15;18.40;99.90
14487;DHT22;7329;50.866;4.366;2022-12-29T07:28:18;18.40;99.90
14487;DHT22;7329;50.866;4.366;2022-12-29T07:30:21;18.40;99.90
14487;DHT22;7329;50.866;4.366;2022-12-29T07:32:23;18.30;99.90
14487;DHT22;7329;50.866;4.366;2022-12-29T07:34:26;18.30;99.90
14487;DHT22;7329;50.866;4.366;2022-12-29T07:36:28;18.30;99.90
14487;DHT22;7329;50.866;4.366;2022-12-29T07:38:30;18.40;99.90
14487;DHT22;7329;50.866;4.366;2022-12-29T07:40:34;18.40;99.90
14487;DHT22;7329;50.866;4.366;2022-12-29T07:42:36;18.40;99.90
14487;DHT22;7329;50.866;4.366;2022-12-29T07:44:39;18.40;99.90
14487;DHT22;7329;50.866;4.366;2022-12-29T07:46:41;18.40;99.90
14487;DHT22;7329;50.866;4.366;2022-12-29T07:48:43;18.40;99.90
14487;DHT22;7329;50.866;4.366;2022-12-29T07:50:46;18.40;99.90
14487;DHT22;7329;50.866;4.366;2022-12-29T07:52:48;18.50;99.90
14487;DHT22;7329;50.866;4.366;2022-12-29T07:54:50;18.50;99.90
14487;DHT22;7329;50.866;4.366;2022-12-29T07:56:54;18.50;99.90
14487;DHT22;7329;50.866;4.366;2022-12-29T07:58:56;18.40;99.90
14487;DHT22;7329;50.866;4.366;2022-12-29T08:00:59;18.50;99.90
14487;DHT22;7329;50.866;4.366;2022-12-29T08:03:01;18.50;99.90
14487;DHT22;7329;50.866;4.366;2022-12-29T08:05:04;18.50;99.90
14487;DHT22;7329;50.866;4.366;2022-12-29T08:07:07;18.50;99.90
14487;DHT22;7329;50.866;4.366;2022-12-29T08:09:09;18.50;99.90
14487;DHT22;7329;50.866;4.366;2022-12-29T08:11:11;18.50;99.90
14487;DHT22;7329;50.866;4.366;2022-12-29T08:13:15;18.50;99.90
14487;DHT22;7329;50.866;4.366;2022-12-29T08:15:18;18.50;99.90
14487;DHT22;7329;50.866;4.366;2022-12-29T08:17:20;18.50;99.90
14487;DHT22;7329;50.866;4.366;2022-12-29T08:19:22;18.50;99.90
14487;DHT22;7329;50.866;4.366;2022-12-29T08:21:25;18.50;99.90
14487;DHT22;7329;50.866;4.366;2022-12-29T08:23:28;18.50;99.90
14487;DHT22;7329;50.866;4.366;2022-12-29T08:25:31;18.50;99.90
14487;DHT22;7329;50.866;4.366;2022-12-29T08:27:33;18.50;99.90
14487;DHT22;7329;50.866;4.366;2022-12-29T08:29:37;18.50;99.90
14487;DHT22;7329;50.866;4.366;2022-12-29T08:31:39;18.60;99.90
14487;DHT22;7329;50.866;4.366;2022-12-29T08:33:41;18.60;99.90
14487;DHT22;7329;50.866;4.366;2022-12-29T08:35:44;18.50;99.90
14487;DHT22;7329;50.866;4.366;2022-12-29T08:37:47;18.60;99.90
14487;DHT22;7329;50.866;4.366;2022-12-29T08:39:49;18.60;99.90
14487;DHT22;7329;50.866;4.366;2022-12-29T08:41:51;18.50;99.90
14487;DHT22;7329;50.866;4.366;2022-12-29T08:43:54;18.50;99.90
14487;DHT22;7329;50.866;4.366;2022-12-29T08:45:58;18.60;99.90
14487;DHT22;7329;50.866;4.366;2022-12-29T08:48:01;18.60;99.90
14487;DHT22;7329;50.866;4.366;2022-12-29T08:50:04;18.60;99.90
14487;DHT22;7329;50.866;4.366;2022-12-29T08:52:07;18.60;99.90
14487;DHT22;7329;50.866;4.366;2022-12-29T08:54:10;18.60;99.90
14487;DHT22;7329;50.866;4.366;2022-12-29T08:56:12;18.60;99.90
14487;DHT22;7329;50.866;4.366;2022-12-29T08:58:15;18.60;99.90
14487;DHT22;7329;50.866;4.366;2022-12-29T09:00:19;18.60;99.90
14487;DHT22;7329;50.866;4.366;2022-12-29T09:02:23;18.60;99.90
14487;DHT22;7329;50.866;4.366;2022-12-29T09:04:25;18.60;99.90
14487;DHT22;7329;50.866;4.366;2022-12-29T09:06:31;18.70;99.90
14487;DHT22;7329;50.866;4.366;2022-12-29T09:08:33;18.60;99.90
14487;DHT22;7329;50.866;4.366;2022-12-29T09:10:36;18.70;99.90
14487;DHT22;7329;50.866;4.366;2022-12-29T09:12:38;18.70;99.90
14487;DHT22;7329;50.866;4.366;2022-12-29T09:14:40;18.70;99.90
14487;DHT22;7329;50.866;4.366;2022-12-29T09:16:43;18.70;99.90
14487;DHT22;7329;50.866;4.366;2022-12-29T09:19:05;18.70;99.90
14487;DHT22;7329;50.866;4.366;2022-12-29T09:21:09;18.70;99.90
14487;DHT22;7329;50.866;4.366;2022-12-29T09:23:11;18.70;99.90
14487;DHT22;7329;50.866;4.366;2022-12-29T09:25:14;18.70;99.90
14487;DHT22;7329;50.866;4.366;2022-12-29T09:27:16;18.70;99.90
14487;DHT22;7329;50.866;4.366;2022-12-29T09:29:19;18.70;99.90
14487;DHT22;7329;50.866;4.366;2022-12-29T09:31:21;18.70;99.90
14487;DHT22;7329;50.866;4.366;2022-12-29T09:33:24;18.70;99.90
14487;DHT22;7329;50.866;4.366;2022-12-29T09:35:28;18.70;99.90
14487;DHT22;7329;50.866;4.366;2022-12-29T09:37:30;18.70;99.90
14487;DHT22;7329;50.866;4.366;2022-12-29T09:39:32;18.70;99.90
14487;DHT22;7329;50.866;4.366;2022-12-29T09:41:38;18.70;99.90
14487;DHT22;7329;50.866;4.366;2022-12-29T09:44:04;18.70;99.90
14487;DHT22;7329;50.866;4.366;2022-12-29T09:46:14;18.70;99.90
14487;DHT22;7329;50.866;4.366;2022-12-29T09:48:23;18.70;99.90
14487;DHT22;7329;50.866;4.366;2022-12-29T09:50:30;18.80;99.90
14487;DHT22;7329;50.866;4.366;2022-12-29T09:52:37;18.70;99.90
14487;DHT22;7329;50.866;4.366;2022-12-29T09:54:50;18.80;99.90
14487;DHT22;7329;50.866;4.366;2022-12-29T09:56:53;18.80;99.90
14487;DHT22;7329;50.866;4.366;2022-12-29T09:59:00;18.80;99.90
14487;DHT22;7329;50.866;4.366;2022-12-29T10:01:05;18.80;99.90
14487;DHT22;7329;50.866;4.366;2022-12-29T10:03:13;18.80;99.90
14487;DHT22;7329;50.866;4.366;2022-12-29T10:05:33;18.80;99.90
14487;DHT22;7329;50.866;4.366;2022-12-29T10:07:42;18.80;99.90
14487;DHT22;7329;50.866;4.366;2022-12-29T10:09:56;18.80;99.90
14487;DHT22;7329;50.866;4.366;2022-12-29T10:12:11;18.80;99.90
14487;DHT22;7329;50.866;4.366;2022-12-29T10:14:29;18.80;99.90
14487;DHT22;7329;50.866;4.366;2022-12-29T10:16:42;18.90;99.90
14487;DHT22;7329;50.866;4.366;2022-12-29T10:19:04;18.90;99.90
14487;DHT22;7329;50.866;4.366;2022-12-29T10:21:20;18.90;99.90
14487;DHT22;7329;50.866;4.366;2022-12-29T10:23:29;18.90;99.90
14487;DHT22;7329;50.866;4.366;2022-12-29T10:25:37;18.90;99.90
14487;DHT22;7329;50.866;4.366;2022-12-29T10:27:41;18.90;99.90
14487;DHT22;7329;50.866;4.366;2022-12-29T10:29:49;18.90;99.90
14487;DHT22;7329;50.866;4.366;2022-12-29T10:31:58;18.90;99.90
14487;DHT22;7329;50.866;4.366;2022-12-29T10:34:05;18.90;99.90
14487;DHT22;7329;50.866;4.366;2022-12-29T10:36:16;18.90;99.90
14487;DHT22;7329;50.866;4.366;2022-12-29T10:38:25;18.90;99.90
14487;DHT22;7329;50.866;4.366;2022-12-29T10:40:33;18.90;99.90
14487;DHT22;7329;50.866;4.366;2022-12-29T10:42:42;19.00;99.90
14487;DHT22;7329;50.866;4.366;2022-12-29T10:44:45;19.00;99.90
14487;DHT22;7329;50.866;4.366;2022-12-29T10:46:55;19.00;99.90
14487;DHT22;7329;50.866;4.366;2022-12-29T10:48:58;19.00;99.90
14487;DHT22;7329;50.866;4.366;2022-12-29T10:51:02;19.00;99.90
14487;DHT22;7329;50.866;4.366;2022-12-29T10:53:07;19.00;99.90
14487;DHT22;7329;50.866;4.366;2022-12-29T10:55:14;19.00;99.90
14487;DHT22;7329;50.866;4.366;2022-12-29T10:57:24;19.00;99.90
14487;DHT22;7329;50.866;4.366;2022-12-29T10:59:30;19.00;99.90
14487;DHT22;7329;50.866;4.366;2022-12-29T11:01:38;19.00;99.90
14487;DHT22;7329;50.866;4.366;2022-12-29T11:03:50;19.10;99.90
14487;DHT22;7329;50.866;4.366;2022-12-29T11:06:03;19.10;99.90
14487;DHT22;7329;50.866;4.366;2022-12-29T11:08:13;19.10;99.90
14487;DHT22;7329;50.866;4.366;2022-12-29T11:10:18;19.10;99.90
14487;DHT22;7329;50.866;4.366;2022-12-29T11:12:24;19.10;99.90
14487;DHT22;7329;50.866;4.366;2022-12-29T11:14:28;19.10;99.90
14487;DHT22;7329;50.866;4.366;2022-12-29T11:16:32;19.10;99.90
14487;DHT22;7329;50.866;4.366;2022-12-29T11:18:36;19.20;99.90
14487;DHT22;7329;50.866;4.366;2022-12-29T11:20:40;19.10;99.90
14487;DHT22;7329;50.866;4.366;2022-12-29T11:22:44;19.20;99.90
14487;DHT22;7329;50.866;4.366;2022-12-29T11:24:49;19.20;99.90
14487;DHT22;7329;50.866;4.366;2022-12-29T11:26:53;19.20;99.90
14487;DHT22;7329;50.866;4.366;2022-12-29T11:29:20;19.20;99.90
14487;DHT22;7329;50.866;4.366;2022-12-29T11:31:23;19.20;99.90
14487;DHT22;7329;50.866;4.366;2022-12-29T11:33:27;19.20;99.90
14487;DHT22;7329;50.866;4.366;2022-12-29T11:35:33;19.20;99.90
14487;DHT22;7329;50.866;4.366;2022-12-29T11:37:38;19.20;99.90
14487;DHT22;7329;50.866;4.366;2022-12-29T11:39:49;19.20;99.90
14487;DHT22;7329;50.866;4.366;2022-12-29T11:41:52;19.20;99.90
14487;DHT22;7329;50.866;4.366;2022-12-29T11:43:57;19.20;99.90
14487;DHT22;7329;50.866;4.366;2022-12-29T11:46:01;19.20;99.90
14487;DHT22;7329;50.866;4.366;2022-12-29T11:48:07;19.20;99.90
14487;DHT22;7329;50.866;4.366;2022-12-29T11:50:17;19.20;99.90
14487;DHT22;7329;50.866;4.366;2022-12-29T11:52:22;19.20;99.90
14487;DHT22;7329;50.866;4.366;2022-12-29T11:54:27;19.20;99.90
14487;DHT22;7329;50.866;4.366;2022-12-29T11:56:36;19.20;99.90
14487;DHT22;7329;50.866;4.366;2022-12-29T11:58:39;19.20;99.90
14487;DHT22;7329;50.866;4.366;2022-12-29T12:00:42;19.20;99.90
14487;DHT22;7329;50.866;4.366;2022-12-29T12:02:53;19.20;99.90
14487;DHT22;7329;50.866;4.366;2022-12-29T12:05:03;19.30;99.90
14487;DHT22;7329;50.866;4.366;2022-12-29T12:07:12;19.20;99.90
14487;DHT22;7329;50.866;4.366;2022-12-29T12:09:23;19.30;99.90
14487;DHT22;7329;50.866;4.366;2022-12-29T12:11:31;19.20;99.90
14487;DHT22;7329;50.866;4.366;2022-12-29T12:13:53;19.30;99.90
14487;DHT22;7329;50.866;4.366;2022-12-29T12:16:04;19.20;99.90
14487;DHT22;7329;50.866;4.366;2022-12-29T12:18:11;19.20;99.90
14487;DHT22;7329;50.866;4.366;2022-12-29T12:20:21;19.20;99.90
14487;DHT22;7329;50.866;4.366;2022-12-29T12:22:29;19.20;99.90
14487;DHT22;7329;50.866;4.366;2022-12-29T12:24:37;19.20;99.90
14487;DHT22;7329;50.866;4.366;2022-12-29T12:26:49;19.20;99.90
14487;DHT22;7329;50.866;4.366;2022-12-29T12:28:58;19.20;99.90
14487;DHT22;7329;50.866;4.366;2022-12-29T12:31:02;19.20;99.90
14487;DHT22;7329;50.866;4.366;2022-12-29T12:33:15;19.20;99.90
14487;DHT22;7329;50.866;4.366;2022-12-29T12:35:26;19.20;99.90
14487;DHT22;7329;50.866;4.366;2022-12-29T12:37:52;19.30;99.90
14487;DHT22;7329;50.866;4.366;2022-12-29T12:40:14;19.30;99.90
14487;DHT22;7329;50.866;4.366;2022-12-29T12:42:34;19.30;99.90
14487;DHT22;7329;50.866;4.366;2022-12-29T12:44:51;19.30;99.90
14487;DHT22;7329;50.866;4.366;2022-12-29T12:47:13;19.30;99.90
14487;DHT22;7329;50.866;4.366;2022-12-29T12:49:36;19.30;99.90
14487;DHT22;7329;50.866;4.366;2022-12-29T12:51:49;19.30;99.90
14487;DHT22;7329;50.866;4.366;2022-12-29T12:54:05;19.30;99.90
14487;DHT22;7329;50.866;4.366;2022-12-29T12:58:51;19.30;99.90
14487;DHT22;7329;50.866;4.366;2022-12-29T13:01:04;19.30;99.90
14487;DHT22;7329;50.866;4.366;2022-12-29T13:03:16;19.30;99.90
14487;DHT22;7329;50.866;4.366;2022-12-29T13:05:38;19.30;99.90
14487;DHT22;7329;50.866;4.366;2022-12-29T13:07:51;19.30;99.90
14487;DHT22;7329;50.866;4.366;2022-12-29T13:10:16;19.30;99.90
14487;DHT22;7329;50.866;4.366;2022-12-29T13:12:29;19.30;99.90
14487;DHT22;7329;50.866;4.366;2022-12-29T13:14:43;19.30;99.90
14487;DHT22;7329;50.866;4.366;2022-12-29T13:16:52;19.30;99.90
14487;DHT22;7329;50.866;4.366;2022-12-29T13:18:59;19.30;99.90
14487;DHT22;7329;50.866;4.366;2022-12-29T13:21:09;19.30;99.90
14487;DHT22;7329;50.866;4.366;2022-12-29T13:23:19;19.30;99.90
14487;DHT22;7329;50.866;4.366;2022-12-29T13:25:31;19.30;99.90
14487;DHT22;7329;50.866;4.366;2022-12-29T13:27:42;19.30;99.90
14487;DHT22;7329;50.866;4.366;2022-12-29T13:29:54;19.40;99.90
14487;DHT22;7329;50.866;4.366;2022-12-29T13:32:13;19.40;99.90
14487;DHT22;7329;50.866;4.366;2022-12-29T13:34:32;19.40;99.90